Stack Town, Pennsylvania
Current Conditions -  °F | °C
As of 8:41 PM on Wednesday 26 Nov 2014 (Local Time) from KMDT Reporting Station
Light Snow Light Snow  
Wind Chill: 27°   Ceiling: 6000
Heat Index: 34°   Visibility: 10mi
Dew Point: 31°   Wind: 8mph
Humidity: 89%   Direction: 320°NW
Pressure: 29.93"   Gusts: NA
Location:  40.1066°N, 76.6626°W
Report Text: KMDT 270141Z 32007KT 10SM -SN SCT025 BKN060 OVC110 01/M01 A2993 RMK AO2 PCPN VRY LGT P0000 T00111006
Loading
Personal Weather Stations






























Interactive Weather Map New forecast layout! Learn more

10-Day Weather Forecast

Advertisements
Track Severe Weather on mobile